Time;durP1;ratioP1;P1;durP2;ratioP2;P2;SDS_P1;SDS_P2;PMS_P1;PMS_P2;Temp;Humidity;BMP_temperature;BMP_pressure;BME280_temperature;BME280_humidity;BME280_pressure;Samples;Min_cycle;Max_cycle;Signal;HPM_P1;HPM_P2
2022/01/05 00:00:04;;;;;;;379.23;122.83;;;;;;;6.02;77.62;99128.84;343337;28;1387;-71
2022/01/05 00:00:15;;;;;;;378.90;122.05;;;;;;;6.00;77.81;99133.22;340823;28;1198;-71
2022/01/05 00:00:25;;;;;;;378.33;118.73;;;;;;;6.00;77.69;99130.63;342246;28;850;-71
2022/01/05 00:00:36;;;;;;;379.50;118.55;;;;;;;5.98;77.56;99132.41;342171;28;1063;-71
2022/01/05 00:00:46;;;;;;;377.60;116.20;;;;;;;5.97;77.44;99135.91;342315;28;1729;-71
2022/01/05 00:00:59;;;;;;;372.77;115.50;;;;;;;5.94;77.19;99129.06;341983;28;1432;-71
2022/01/05 00:01:09;;;;;;;369.77;115.05;;;;;;;5.98;76.88;99135.03;340789;29;1153;-71
2022/01/05 00:01:19;;;;;;;370.85;117.43;;;;;;;5.99;77.12;99131.53;344733;28;1337;-71
2022/01/05 00:01:30;;;;;;;370.80;117.07;;;;;;;5.98;77.02;99133.28;342246;28;1275;-71
2022/01/05 00:01:40;;;;;;;371.40;115.85;;;;;;;6.01;76.97;99132.31;340883;29;899;-71
2022/01/05 00:01:51;;;;;;;370.80;116.20;;;;;;;6.02;76.98;99134.03;345087;28;941;-71
2022/01/05 00:02:01;;;;;;;370.73;116.30;;;;;;;6.03;77.32;99130.53;344940;28;905;-71
2022/01/05 00:02:12;;;;;;;371.93;116.43;;;;;;;6.03;76.67;99135.72;346177;28;980;-71
2022/01/05 00:02:22;;;;;;;373.15;113.75;;;;;;;6.02;77.07;99134.03;343544;28;949;-71
2022/01/05 00:02:32;;;;;;;374.60;112.43;;;;;;;6.03;77.02;99135.72;339701;28;1716;-71
2022/01/05 00:02:43;;;;;;;374.40;114.75;;;;;;;6.03;76.62;99130.53;340375;28;1394;-70
2022/01/05 00:02:53;;;;;;;373.07;116.17;;;;;;;6.02;77.16;99134.03;344304;28;837;-70
2022/01/05 00:03:07;;;;;;;373.30;118.15;;;;;;;5.99;76.97;99124.59;343287;28;1342;-71
2022/01/05 00:03:17;;;;;;;373.08;115.88;;;;;;;5.98;76.23;99133.28;340542;28;1440;-71
2022/01/05 00:03:27;;;;;;;370.70;115.57;;;;;;;5.96;76.36;99134.22;340785;29;829;-70
2022/01/05 00:03:38;;;;;;;369.37;115.07;;;;;;;5.96;76.70;99135.06;340773;29;961;-70
2022/01/05 00:03:48;;;;;;;368.38;113.55;;;;;;;5.96;76.78;99131.63;344902;28;952;-70
2022/01/05 00:03:59;;;;;;;370.20;115.33;;;;;;;5.96;76.97;99136.81;344932;28;1196;-70
2022/01/05 00:04:09;;;;;;;370.95;115.45;;;;;;;5.97;77.00;99130.72;344690;28;1274;-70
2022/01/05 00:04:19;;;;;;;371.63;115.57;;;;;;;5.98;76.93;99132.41;340844;28;986;-70
2022/01/05 00:04:30;;;;;;;370.53;114.10;;;;;;;5.99;77.26;99134.97;343496;28;1027;-70
2022/01/05 00:04:40;;;;;;;370.98;115.32;;;;;;;5.99;77.20;99144.50;344364;28;1315;-71
2022/01/05 00:04:51;;;;;;;371.00;116.40;;;;;;;5.99;77.35;99139.31;344870;28;910;-71
2022/01/05 00:05:02;;;;;;;371.17;116.20;;;;;;;5.98;77.30;99133.28;343574;28;1224;-71
2022/01/05 00:05:13;;;;;;;372.83;116.97;;;;;;;5.98;77.45;99137.63;339503;29;870;-71
2022/01/05 00:05:23;;;;;;;373.03;117.97;;;;;;;5.97;77.61;99135.91;342123;28;1346;-71
2022/01/05 00:05:34;;;;;;;373.13;118.75;;;;;;;5.98;77.66;99141.06;343588;28;790;-71
2022/01/05 00:05:44;;;;;;;372.93;117.87;;;;;;;6.00;77.62;99143.63;342237;28;1341;-71
2022/01/05 00:05:54;;;;;;;375.95;118.00;;;;;;;5.99;77.74;99140.16;343686;28;797;-71
2022/01/05 00:06:05;;;;;;;373.23;117.47;;;;;;;5.98;77.83;99141.06;341940;28;952;-71
2022/01/05 00:06:15;;;;;;;374.70;119.72;;;;;;;5.96;77.70;99136.81;342257;28;2016;-71
2022/01/05 00:06:25;;;;;;;370.97;118.63;;;;;;;5.97;77.73;99141.97;342186;28;847;-71
2022/01/05 00:06:36;;;;;;;373.00;117.87;;;;;;;5.97;77.54;99143.69;339524;29;894;-71
2022/01/05 00:06:46;;;;;;;372.15;117.47;;;;;;;5.96;77.45;99139.41;340961;29;882;-71
2022/01/05 00:06:57;;;;;;;374.07;116.50;;;;;;;5.98;77.31;99145.41;342104;28;1374;-71
2022/01/05 00:07:07;;;;;;;372.52;115.97;;;;;;;5.99;77.36;99144.50;340764;29;937;-71
2022/01/05 00:07:17;;;;;;;371.63;113.10;;;;;;;5.96;77.50;99139.41;342657;28;1296;-71
2022/01/05 00:07:28;;;;;;;370.58;115.03;;;;;;;5.98;77.75;99142.81;342803;28;1643;-70
2022/01/05 00:07:38;;;;;;;371.87;117.20;;;;;;;5.97;77.18;99141.09;342346;28;829;-70
2022/01/05 00:07:49;;;;;;;369.77;119.18;;;;;;;5.99;77.38;99147.09;343216;28;786;-70
2022/01/05 00:07:59;;;;;;;374.40;120.00;;;;;;;5.97;77.35;99135.91;343458;28;835;-70
2022/01/05 00:08:09;;;;;;;373.77;116.70;;;;;;;5.99;77.25;99144.50;340696;28;1262;-70
2022/01/05 00:08:24;;;;;;;374.73;113.73;;;;;;;5.97;76.90;99147.16;343347;28;1240;-70
2022/01/05 00:08:35;;;;;;;370.67;113.63;;;;;;;5.97;77.27;99136.75;342297;28;861;-70
2022/01/05 00:08:45;;;;;;;369.23;113.13;;;;;;;5.99;76.93;99136.72;343429;28;1645;-70
2022/01/05 00:08:56;;;;;;;369.87;114.13;;;;;;;5.98;77.27;99137.63;340914;29;1186;-70
2022/01/05 00:09:06;;;;;;;371.17;112.90;;;;;;;5.99;76.88;99131.53;340664;29;1229;-71
2022/01/05 00:09:16;;;;;;;374.97;115.47;;;;;;;5.98;76.88;99130.66;341932;28;1200;-71
2022/01/05 00:09:27;;;;;;;375.57;114.53;;;;;;;5.97;77.05;99135.91;342212;28;828;-71
2022/01/05 00:09:37;;;;;;;374.95;113.63;;;;;;;5.96;77.07;99127.28;346047;28;1492;-71
2022/01/05 00:09:48;;;;;;;372.37;112.07;;;;;;;5.98;76.86;99129.81;346159;28;1278;-71
2022/01/05 00:09:59;;;;;;;373.65;112.95;;;;;;;5.97;76.82;99135.91;346288;28;872;-71
2022/01/05 00:10:09;;;;;;;372.40;114.47;;;;;;;5.95;76.74;99135.97;344854;28;913;-71
2022/01/05 00:10:19;;;;;;;372.15;114.63;;;;;;;5.95;76.78;99127.31;343456;28;1223;-71
2022/01/05 00:10:30;;;;;;;373.90;118.50;;;;;;;5.94;77.10;99130.81;339499;28;1187;-71
2022/01/05 00:10:40;;;;;;;374.10;118.07;;;;;;;5.94;77.04;99130.81;342230;28;927;-70
2022/01/05 00:10:53;;;;;;;374.50;117.77;;;;;;;5.93;77.01;99129.97;343468;28;1206;-71
2022/01/05 00:11:04;;;;;;;372.38;115.60;;;;;;;5.93;77.18;99129.09;343475;28;1081;-71
2022/01/05 00:11:14;;;;;;;373.38;115.97;;;;;;;5.92;76.99;99130.00;343508;28;853;-71
2022/01/05 00:11:25;;;;;;;372.57;115.80;;;;;;;5.92;76.85;99130.00;344688;28;924;-71
2022/01/05 00:11:35;;;;;;;372.95;116.60;;;;;;;5.91;77.21;99133.50;342224;28;1468;-71
2022/01/05 00:11:46;;;;;;;371.53;117.33;;;;;;;5.91;76.80;99130.91;342269;28;960;-71
2022/01/05 00:11:56;;;;;;;370.52;116.72;;;;;;;5.92;76.74;99137.78;343604;28;828;-71
2022/01/05 00:12:07;;;;;;;367.30;114.77;;;;;;;5.92;76.74;99132.59;344832;28;834;-71
2022/01/05 00:12:17;;;;;;;365.52;111.35;;;;;;;5.90;76.97;99132.66;344900;28;879;-71
2022/01/05 00:12:28;;;;;;;365.48;111.20;;;;;;;5.91;76.48;99136.09;340645;28;1479;-71
2022/01/05 00:12:38;;;;;;;363.47;112.70;;;;;;;5.92;76.52;99132.59;339418;28;814;-71
2022/01/05 00:12:49;;;;;;;361.42;111.85;;;;;;;5.93;76.82;99129.09;337763;29;629;-71
2022/01/05 00:12:59;;;;;;;358.30;110.73;;;;;;;5.94;76.56;99136.00;342049;28;1420;-71
2022/01/05 00:13:09;;;;;;;359.48;109.28;;;;;;;5.94;76.54;99136.00;345946;28;1448;-71
2022/01/05 00:13:20;;;;;;;363.07;111.17;;;;;;;5.95;76.27;99135.97;343548;28;1173;-71
2022/01/05 00:13:30;;;;;;;366.10;112.07;;;;;;;5.95;76.03;99137.69;342328;28;846;-71
2022/01/05 00:13:42;;;;;;;364.27;111.63;;;;;;;5.96;76.17;99140.25;343370;28;1177;-71
2022/01/05 00:13:55;;;;;;;364.23;111.50;;;;;;;5.95;75.83;99138.56;343492;28;967;-71
2022/01/05 00:14:06;;;;;;;364.72;113.16;;;;;;;5.93;76.34;99134.31;343436;28;1329;-71
2022/01/05 00:14:16;;;;;;;364.27;114.23;;;;;;;5.96;75.94;99139.41;342089;28;985;-71
2022/01/05 00:14:27;;;;;;;362.87;111.07;;;;;;;5.96;76.43;99134.22;340651;29;822;-70
2022/01/05 00:14:37;;;;;;;361.93;110.43;;;;;;;5.98;76.29;99135.03;340882;29;1031;-70
2022/01/05 00:14:47;;;;;;;361.23;109.47;;;;;;;5.98;76.38;99138.47;343515;28;857;-70
2022/01/05 00:14:58;;;;;;;360.25;109.57;;;;;;;5.98;76.39;99133.28;343625;28;1414;-70
2022/01/05 00:15:08;;;;;;;360.77;111.23;;;;;;;5.98;76.66;99135.88;343286;28;1228;-70
2022/01/05 00:15:19;;;;;;;363.48;113.53;;;;;;;5.97;76.30;99131.56;343247;28;1415;-70
2022/01/05 00:15:30;;;;;;;366.67;114.13;;;;;;;5.98;76.29;99137.63;340714;29;802;-70
2022/01/05 00:15:40;;;;;;;365.27;113.27;;;;;;;5.98;76.11;99138.47;341027;29;889;-70
2022/01/05 00:15:50;;;;;;;365.73;112.30;;;;;;;5.99;75.94;99134.13;341278;28;1578;-71
2022/01/05 00:16:01;;;;;;;364.67;112.23;;;;;;;6.00;76.19;99141.03;346068;28;1295;-71
2022/01/05 00:16:12;;;;;;;365.70;111.57;;;;;;;6.00;76.19;99135.81;344818;28;1448;-71
2022/01/05 00:16:22;;;;;;;366.10;111.50;;;;;;;6.01;76.12;99140.13;343368;28;1448;-72
2022/01/05 00:16:32;;;;;;;368.07;112.20;;;;;;;6.01;76.20;99132.31;344566;28;1329;-71
2022/01/05 00:16:43;;;;;;;366.13;110.63;;;;;;;6.01;76.19;99132.31;340987;29;885;-71
2022/01/05 00:16:53;;;;;;;363.90;110.10;;;;;;;6.03;75.87;99135.72;342287;28;797;-71
2022/01/05 00:17:04;;;;;;;362.40;110.37;;;;;;;6.02;76.41;99136.63;340698;28;1181;-71
2022/01/05 00:17:14;;;;;;;363.35;110.60;;;;;;;6.03;76.34;99140.06;343510;28;885;-71
2022/01/05 00:17:25;;;;;;;364.17;111.87;;;;;;;6.02;76.46;99139.22;343905;28;1298;-71
2022/01/05 00:17:35;;;;;;;365.35;113.03;;;;;;;6.00;76.23;99147.06;339625;28;1347;-71
2022/01/05 00:17:45;;;;;;;364.75;114.72;;;;;;;5.99;76.28;99144.50;336900;29;913;-71
2022/01/05 00:17:56;;;;;;;362.80;112.43;;;;;;;5.97;76.20;99143.69;342310;28;888;-71
2022/01/05 00:18:06;;;;;;;364.08;111.72;;;;;;;5.98;76.60;99142.81;342020;28;888;-71
2022/01/05 00:18:17;;;;;;;366.67;109.43;;;;;;;5.98;76.60;99148.00;342080;28;936;-71
2022/01/05 00:18:27;;;;;;;368.93;111.50;;;;;;;5.97;76.28;99147.16;342134;28;928;-71
2022/01/05 00:18:37;;;;;;;366.67;112.97;;;;;;;5.97;76.43;99146.31;343379;28;846;-71
2022/01/05 00:18:48;;;;;;;362.67;113.00;;;;;;;5.99;76.55;99154.91;340905;29;870;-71
2022/01/05 00:18:58;;;;;;;362.45;111.70;;;;;;;5.98;76.50;99142.81;343620;28;981;-71
2022/01/05 00:19:09;;;;;;;360.77;109.50;;;;;;;5.96;76.56;99139.41;343191;28;1669;-71
2022/01/05 00:19:19;;;;;;;363.23;110.57;;;;;;;5.95;76.35;99150.69;343487;28;885;-71
2022/01/05 00:19:29;;;;;;;363.47;113.40;;;;;;;5.95;76.48;99145.50;340882;29;888;-71
2022/01/05 00:19:40;;;;;;;365.13;113.70;;;;;;;5.94;76.77;99149.84;342036;28;1106;-71
2022/01/05 00:19:50;;;;;;;365.63;112.57;;;;;;;5.95;76.33;99148.09;342320;28;858;-71
2022/01/05 00:20:01;;;;;;;365.35;109.20;;;;;;;5.94;75.93;99142.03;342055;28;1256;-71
2022/01/05 00:20:11;;;;;;;362.53;108.03;;;;;;;5.94;76.32;99147.25;342036;28;1253;-71
2022/01/05 00:20:23;;;;;;;360.48;108.80;;;;;;;5.95;76.16;99148.94;339461;29;1011;-71
2022/01/05 00:20:33;;;;;;;359.40;110.55;;;;;;;5.96;75.84;99149.78;343325;28;884;-71
2022/01/05 00:20:44;;;;;;;363.67;112.73;;;;;;;5.96;76.00;99155.00;344683;28;1669;-71
2022/01/05 00:20:55;;;;;;;365.73;112.70;;;;;;;5.97;75.96;99151.50;342317;28;816;-71
2022/01/05 00:21:05;;;;;;;366.48;112.70;;;;;;;5.97;75.87;99151.50;343351;28;920;-71
2022/01/05 00:21:16;;;;;;;363.67;111.90;;;;;;;5.96;76.14;99149.78;343408;28;888;-69
2022/01/05 00:21:26;;;;;;;363.10;111.35;;;;;;;5.95;76.10;99150.69;343352;28;1487;-69
2022/01/05 00:21:36;;;;;;;363.70;112.37;;;;;;;5.94;75.79;99149.00;343293;28;818;-70
2022/01/05 00:21:48;;;;;;;363.17;111.45;;;;;;;5.94;76.12;99149.00;342122;28;1276;-70
2022/01/05 00:21:58;;;;;;;362.67;110.72;;;;;;;5.95;76.30;99148.94;343505;28;1422;-70
2022/01/05 00:22:08;;;;;;;362.33;109.43;;;;;;;5.95;76.39;99148.09;342072;28;1249;-71
2022/01/05 00:22:19;;;;;;;363.45;110.43;;;;;;;5.92;75.96;99148.19;342041;28;917;-71
2022/01/05 00:22:29;;;;;;;363.07;112.40;;;;;;;5.94;75.89;99143.78;339448;28;1345;-71
2022/01/05 00:22:40;;;;;;;363.20;112.05;;;;;;;5.92;76.25;99148.19;338014;29;802;-71
2022/01/05 00:22:51;;;;;;;361.80;112.72;;;;;;;5.91;76.46;99143.88;340645;28;889;-72
2022/01/05 00:23:01;;;;;;;363.37;111.90;;;;;;;5.92;75.97;99146.44;342170;28;798;-71
2022/01/05 00:23:12;;;;;;;364.10;111.72;;;;;;;5.94;76.02;99146.38;342155;28;897;-71
2022/01/05 00:23:22;;;;;;;363.10;108.27;;;;;;;5.94;76.17;99147.25;341928;28;1401;-71
2022/01/05 00:23:32;;;;;;;363.27;108.38;;;;;;;5.94;76.18;99141.19;343536;28;901;-71
2022/01/05 00:23:43;;;;;;;362.03;108.20;;;;;;;5.94;76.41;99146.38;343543;28;1312;-71
2022/01/05 00:23:54;;;;;;;364.45;110.35;;;;;;;5.93;76.51;99140.34;343359;28;1215;-71
2022/01/05 00:24:04;;;;;;;362.85;110.63;;;;;;;5.93;76.33;99140.34;341826;28;1547;-71
2022/01/05 00:24:15;;;;;;;363.43;110.37;;;;;;;5.92;76.54;99143.00;341984;28;901;-71
2022/01/05 00:24:25;;;;;;;365.00;110.68;;;;;;;5.91;76.54;99146.47;342223;28;878;-71
2022/01/05 00:24:36;;;;;;;365.63;113.20;;;;;;;5.89;76.58;99145.69;342008;28;1164;-71
2022/01/05 00:24:46;;;;;;;368.77;115.55;;;;;;;5.88;76.29;99149.13;346241;28;1236;-71
2022/01/05 00:24:57;;;;;;;368.23;114.30;;;;;;;5.87;76.33;99147.44;342135;28;1224;-71
2022/01/05 00:25:07;;;;;;;369.57;114.03;;;;;;;5.88;76.37;99141.34;340789;29;783;-72
2022/01/05 00:25:18;;;;;;;366.70;113.05;;;;;;;5.88;76.89;99141.34;340718;29;899;-71
2022/01/05 00:25:28;;;;;;;365.15;112.13;;;;;;;5.86;76.41;99143.13;340669;29;1356;-71
2022/01/05 00:25:39;;;;;;;365.00;110.50;;;;;;;5.88;76.63;99149.13;340744;29;1056;-71
2022/01/05 00:25:49;;;;;;;365.10;110.87;;;;;;;5.87;76.80;99145.69;341994;28;1403;-71
2022/01/05 00:26:03;;;;;;;369.70;112.47;;;;;;;5.86;77.11;99143.97;344934;28;868;-71
2022/01/05 00:26:13;;;;;;;368.48;112.55;;;;;;;5.85;76.86;99142.28;343454;28;920;-71
2022/01/05 00:26:25;;;;;;;367.70;113.40;;;;;;;5.84;76.89;99143.19;341833;28;1906;-71
2022/01/05 00:26:35;;;;;;;365.40;113.47;;;;;;;5.85;76.85;99146.63;340830;29;908;-71
2022/01/05 00:26:46;;;;;;;365.70;115.10;;;;;;;5.86;76.76;99148.31;342051;28;1406;-71
2022/01/05 00:26:56;;;;;;;364.98;113.22;;;;;;;5.87;76.70;99150.03;342065;28;881;-71
2022/01/05 00:27:06;;;;;;;364.27;113.03;;;;;;;5.87;76.65;99152.63;342324;28;798;-71
2022/01/05 00:27:17;;;;;;;364.20;111.28;;;;;;;5.85;76.70;99147.47;343525;28;885;-71
2022/01/05 00:27:27;;;;;;;365.83;109.33;;;;;;;5.85;76.68;99147.47;341070;28;936;-71
2022/01/05 00:27:37;;;;;;;365.40;110.40;;;;;;;5.87;77.01;99145.69;337977;29;1536;-71
2022/01/05 00:27:48;;;;;;;365.23;111.90;;;;;;;5.86;76.57;99143.13;338675;29;1228;-72
2022/01/05 00:27:58;;;;;;;363.83;112.82;;;;;;;5.87;76.77;99142.25;338615;29;1541;-71
2022/01/05 00:28:09;;;;;;;360.27;109.10;;;;;;;5.88;76.28;99143.94;342206;28;873;-71
2022/01/05 00:28:19;;;;;;;356.83;106.03;;;;;;;5.87;76.24;99140.50;340797;28;1213;-71
2022/01/05 00:28:30;;;;;;;357.43;107.20;;;;;;;5.88;76.67;99138.75;340690;29;821;-71
2022/01/05 00:28:40;;;;;;;360.15;109.72;;;;;;;5.88;76.26;99142.19;342180;28;829;-71
2022/01/05 00:28:51;;;;;;;361.27;111.07;;;;;;;5.87;76.26;99143.09;342208;28;960;-71
2022/01/05 00:29:02;;;;;;;361.30;109.78;;;;;;;5.85;76.13;99137.09;341996;28;1573;-71
2022/01/05 00:29:12;;;;;;;360.42;108.32;;;;;;;5.84;76.45;99140.59;341898;28;1393;-71
2022/01/05 00:29:22;;;;;;;361.50;109.63;;;;;;;5.85;75.79;99141.44;340812;28;1356;-71
2022/01/05 00:29:33;;;;;;;363.38;110.22;;;;;;;5.85;75.82;99139.69;340704;29;1327;-71
2022/01/05 00:29:43;;;;;;;364.60;112.60;;;;;;;5.85;76.21;99137.09;341978;28;1459;-71
2022/01/05 00:29:54;;;;;;;363.95;112.10;;;;;;;5.87;75.77;99137.91;342211;28;863;-71
2022/01/05 00:30:05;;;;;;;361.10;112.03;;;;;;;5.87;75.68;99129.25;340598;29;936;-71
2022/01/05 00:30:15;;;;;;;360.65;111.50;;;;;;;5.88;76.18;99141.34;338190;29;964;-71
2022/01/05 00:30:26;;;;;;;360.25;110.38;;;;;;;5.87;75.84;99139.63;338041;29;1352;-71
2022/01/05 00:30:36;;;;;;;361.30;109.90;;;;;;;5.90;76.27;99139.59;340839;28;1193;-71
2022/01/05 00:30:46;;;;;;;363.33;110.50;;;;;;;5.89;76.00;99135.28;342742;28;1601;-71
2022/01/05 00:30:57;;;;;;;366.60;110.70;;;;;;;5.91;75.98;99138.69;342060;28;853;-71
2022/01/05 00:31:07;;;;;;;367.27;110.93;;;;;;;5.90;75.73;99134.38;339347;29;1004;-71
2022/01/05 00:31:17;;;;;;;367.47;111.07;;;;;;;5.91;75.79;99136.94;341941;28;1298;-72
2022/01/05 00:31:28;;;;;;;365.13;112.22;;;;;;;5.92;75.53;99143.00;342074;28;1007;-72
2022/01/05 00:31:38;;;;;;;363.23;110.33;;;;;;;5.93;75.68;99142.09;343560;28;1198;-71
2022/01/05 00:31:49;;;;;;;361.17;109.50;;;;;;;5.95;75.66;99142.91;344793;28;840;-71
2022/01/05 00:31:59;;;;;;;362.87;109.70;;;;;;;5.95;75.26;99137.69;344741;28;821;-71
2022/01/05 00:32:10;;;;;;;363.52;109.63;;;;;;;5.93;75.70;99139.50;342007;28;1464;-71
2022/01/05 00:32:20;;;;;;;361.73;107.47;;;;;;;5.93;75.50;99139.50;341966;28;1045;-71
2022/01/05 00:32:31;;;;;;;359.13;106.47;;;;;;;5.93;75.64;99136.91;340286;28;858;-71
2022/01/05 00:32:41;;;;;;;361.23;109.30;;;;;;;5.94;75.31;99141.19;339146;28;1205;-71
2022/01/05 00:32:51;;;;;;;362.98;112.07;;;;;;;5.93;75.51;99134.31;342180;28;1470;-71
2022/01/05 00:33:02;;;;;;;362.37;112.10;;;;;;;5.94;75.52;99143.78;340627;29;863;-71
2022/01/05 00:33:14;;;;;;;359.80;110.70;;;;;;;5.95;75.37;99140.31;340652;29;862;-71
2022/01/05 00:33:25;;;;;;;358.60;109.97;;;;;;;5.96;75.73;99142.84;338024;29;1024;-71
2022/01/05 00:33:35;;;;;;;358.10;108.78;;;;;;;5.95;75.50;99142.91;339424;29;1422;-71
2022/01/05 00:33:46;;;;;;;357.87;107.47;;;;;;;5.94;75.79;99141.19;342086;28;829;-71
2022/01/05 00:33:56;;;;;;;358.88;107.05;;;;;;;5.94;75.69;99146.38;342363;28;932;-71
2022/01/05 00:34:06;;;;;;;360.07;107.83;;;;;;;5.94;75.71;99141.19;341355;28;1470;-71
2022/01/05 00:34:17;;;;;;;360.77;110.00;;;;;;;5.92;75.80;99143.00;342042;28;908;-71
2022/01/05 00:34:27;;;;;;;360.93;109.80;;;;;;;5.92;75.68;99137.78;343281;28;1318;-70
2022/01/05 00:34:38;;;;;;;359.75;108.63;;;;;;;5.91;75.72;99146.47;344846;28;1209;-70
2022/01/05 00:34:48;;;;;;;359.13;107.63;;;;;;;5.92;76.25;99145.59;344678;28;873;-70
2022/01/05 00:34:58;;;;;;;358.67;108.07;;;;;;;5.92;75.88;99138.66;343591;28;865;-70
2022/01/05 00:35:09;;;;;;;360.67;109.60;;;;;;;5.92;75.89;99145.59;343409;28;895;-70
2022/01/05 00:35:19;;;;;;;364.13;111.83;;;;;;;5.93;75.78;99140.34;340633;29;944;-70
2022/01/05 00:35:30;;;;;;;365.95;112.85;;;;;;;5.93;75.96;99135.16;338062;29;875;-70
2022/01/05 00:35:40;;;;;;;364.77;112.17;;;;;;;5.92;75.85;99135.19;339804;29;1633;-70
2022/01/05 00:35:51;;;;;;;362.83;109.53;;;;;;;5.91;76.30;99141.28;344803;28;1275;-70
2022/01/05 00:36:01;;;;;;;360.63;108.80;;;;;;;5.91;76.26;99143.88;343354;28;941;-70
2022/01/05 00:36:11;;;;;;;361.53;109.47;;;;;;;5.93;75.91;99139.50;343375;28;1536;-70
2022/01/05 00:36:22;;;;;;;360.70;108.50;;;;;;;5.92;76.07;99137.78;341856;28;1486;-70
2022/01/05 00:36:32;;;;;;;361.13;107.60;;;;;;;5.91;76.18;99142.13;342073;28;885;-70
2022/01/05 00:36:43;;;;;;;363.03;109.00;;;;;;;5.91;76.18;99141.28;343473;28;1388;-70
2022/01/05 00:36:53;;;;;;;365.13;111.90;;;;;;;5.92;76.23;99138.66;341984;28;869;-70
2022/01/05 00:37:03;;;;;;;364.80;113.87;;;;;;;5.92;75.98;99137.78;343353;28;894;-70
2022/01/05 00:37:14;;;;;;;362.73;112.05;;;;;;;5.93;76.19;99136.91;342148;28;1318;-70
2022/01/05 00:37:25;;;;;;;361.97;110.80;;;;;;;5.93;76.14;99139.50;342997;28;1502;-70
2022/01/05 00:37:35;;;;;;;364.02;111.93;;;;;;;5.93;75.97;99140.34;339375;28;837;-71
2022/01/05 00:37:45;;;;;;;363.40;111.15;;;;;;;5.93;76.10;99140.34;339475;28;1328;-71
2022/01/05 00:37:56;;;;;;;362.40;111.23;;;;;;;5.92;75.86;99137.78;340547;28;1320;-71
2022/01/05 00:38:06;;;;;;;361.45;110.07;;;;;;;5.89;75.91;99143.06;343284;28;1208;-72
2022/01/05 00:38:16;;;;;;;364.13;111.20;;;;;;;5.88;76.08;99146.53;341319;28;1593;-71
2022/01/05 00:38:27;;;;;;;366.57;111.67;;;;;;;5.87;76.29;99139.63;341997;28;1232;-71
2022/01/05 00:38:37;;;;;;;366.92;112.55;;;;;;;5.85;76.19;99136.25;340612;29;908;-71
2022/01/05 00:38:48;;;;;;;367.87;112.57;;;;;;;5.86;76.66;99140.53;343426;28;832;-71
2022/01/05 00:38:58;;;;;;;366.40;112.03;;;;;;;5.84;76.24;99137.97;343249;28;1895;-71
2022/01/05 00:39:09;;;;;;;366.73;110.20;;;;;;;5.84;76.68;99139.72;344590;28;1216;-71
2022/01/05 00:39:19;;;;;;;365.37;110.50;;;;;;;5.83;76.59;99138.88;342142;28;872;-71
2022/01/05 00:39:29;;;;;;;367.85;110.53;;;;;;;5.81;76.12;99138.06;342136;28;915;-71
2022/01/05 00:39:40;;;;;;;367.97;111.67;;;;;;;5.82;76.66;99141.53;344638;28;1498;-71
2022/01/05 00:39:50;;;;;;;367.83;109.33;;;;;;;5.82;76.17;99141.53;343350;28;1094;-71
2022/01/05 00:40:01;;;;;;;365.40;109.40;;;;;;;5.80;76.61;99132.91;342073;28;1371;-69
2022/01/05 00:40:11;;;;;;;367.17;107.85;;;;;;;5.80;76.56;99144.16;340703;28;1264;-69
2022/01/05 00:40:22;;;;;;;364.83;108.80;;;;;;;5.82;76.47;99141.53;341893;28;866;-69
2022/01/05 00:40:32;;;;;;;365.77;109.22;;;;;;;5.82;76.61;99138.91;342185;28;865;-70
2022/01/05 00:40:43;;;;;;;360.97;110.40;;;;;;;5.82;76.54;99144.13;341250;28;1133;-70
2022/01/05 00:40:53;;;;;;;360.83;111.43;;;;;;;5.82;76.37;99142.38;343443;28;894;-70
2022/01/05 00:41:04;;;;;;;362.57;111.97;;;;;;;5.79;76.67;99141.59;344631;28;1230;-70
2022/01/05 00:41:15;;;;;;;366.27;114.90;;;;;;;5.80;76.45;99143.31;344811;28;907;-70
2022/01/05 00:41:25;;;;;;;371.00;117.03;;;;;;;5.79;76.84;99139.00;343231;28;854;-70
2022/01/05 00:41:35;;;;;;;369.27;117.00;;;;;;;5.78;77.04;99139.91;342139;28;904;-70
2022/01/05 00:41:46;;;;;;;368.67;114.03;;;;;;;5.78;77.14;99145.09;346201;28;932;-70
2022/01/05 00:41:56;;;;;;;366.13;111.50;;;;;;;5.76;76.94;99141.69;344693;28;1121;-70
2022/01/05 00:42:07;;;;;;;366.73;113.13;;;;;;;5.76;76.75;99141.69;344537;28;1351;-71
2022/01/05 00:42:17;;;;;;;367.27;114.70;;;;;;;5.77;76.80;99140.81;343330;28;1636;-70
2022/01/05 00:42:28;;;;;;;367.67;113.47;;;;;;;5.75;77.05;99140.00;339856;29;843;-71
2022/01/05 00:42:38;;;;;;;367.37;113.83;;;;;;;5.74;77.16;99139.16;335396;29;1369;-70
2022/01/05 00:42:49;;;;;;;369.13;114.72;;;;;;;5.75;76.93;99140.00;337519;29;806;-70
2022/01/05 00:42:59;;;;;;;368.87;116.03;;;;;;;5.73;76.83;99144.38;341952;28;992;-71
2022/01/05 00:43:09;;;;;;;369.45;115.72;;;;;;;5.72;77.11;99140.94;340495;29;947;-71
2022/01/05 00:43:20;;;;;;;368.25;115.45;;;;;;;5.73;76.56;99137.44;343476;28;1007;-70
2022/01/05 00:43:30;;;;;;;370.50;113.87;;;;;;;5.72;76.83;99142.69;342053;28;806;-70
2022/01/05 00:43:41;;;;;;;370.75;114.93;;;;;;;5.71;76.73;99138.38;339370;29;1316;-71
2022/01/05 00:43:51;;;;;;;372.20;114.60;;;;;;;5.69;76.89;99141.88;342099;28;1292;-71
2022/01/05 00:44:02;;;;;;;371.37;116.20;;;;;;;5.67;76.74;99141.06;342534;28;1688;-70
2022/01/05 00:44:12;;;;;;;368.77;113.47;;;;;;;5.66;77.01;99135.91;341917;28;893;-69
2022/01/05 00:44:24;;;;;;;370.15;116.38;;;;;;;5.67;76.69;99141.06;342086;28;918;-69
2022/01/05 00:44:34;;;;;;;372.20;117.05;;;;;;;5.65;76.90;99139.41;342013;28;1067;-71
2022/01/05 00:44:45;;;;;;;373.55;116.20;;;;;;;5.64;77.10;99133.34;343606;28;824;-70
2022/01/05 00:44:55;;;;;;;371.87;114.50;;;;;;;5.64;77.14;99138.56;343389;28;1373;-70
2022/01/05 00:45:06;;;;;;;371.58;113.85;;;;;;;5.64;77.05;99138.56;343160;28;1239;-70
2022/01/05 00:45:16;;;;;;;370.30;114.95;;;;;;;5.66;76.66;99138.50;343250;28;916;-70
2022/01/05 00:45:27;;;;;;;370.40;115.60;;;;;;;5.66;77.18;99141.09;341870;28;1183;-70
2022/01/05 00:45:37;;;;;;;368.33;114.97;;;;;;;5.68;76.89;99139.31;343290;28;1577;-70
2022/01/05 00:45:47;;;;;;;370.40;117.43;;;;;;;5.67;76.65;99138.47;344751;28;1366;-70
2022/01/05 00:45:58;;;;;;;370.80;118.47;;;;;;;5.68;76.59;99144.50;344561;28;1188;-71
2022/01/05 00:46:08;;;;;;;371.60;118.63;;;;;;;5.65;76.73;99140.25;345940;28;1235;-71
2022/01/05 00:46:19;;;;;;;371.60;117.43;;;;;;;5.63;76.73;99142.03;343295;28;1185;-71
2022/01/05 00:46:29;;;;;;;372.00;117.33;;;;;;;5.64;76.54;99141.16;341754;28;1979;-70
2022/01/05 00:46:39;;;;;;;370.93;116.30;;;;;;;5.64;76.45;99142.88;340638;29;790;-70
2022/01/05 00:46:50;;;;;;;370.33;113.80;;;;;;;5.63;76.69;99142.03;340838;29;1207;-70
2022/01/05 00:47:00;;;;;;;369.70;113.43;;;;;;;5.63;76.19;99147.22;340619;29;1186;-70
2022/01/05 00:47:11;;;;;;;371.48;114.35;;;;;;;5.64;76.45;99142.88;340406;29;1263;-70
2022/01/05 00:47:21;;;;;;;369.67;114.43;;;;;;;5.65;76.35;99144.59;341498;28;1320;-70
2022/01/05 00:47:31;;;;;;;368.83;112.43;;;;;;;5.63;76.69;99139.44;337499;29;925;-71
2022/01/05 00:47:42;;;;;;;367.60;112.37;;;;;;;5.62;76.68;99140.38;339003;28;1189;-70
2022/01/05 00:47:52;;;;;;;369.77;114.47;;;;;;;5.60;76.68;99144.75;343806;28;923;-71
2022/01/05 00:48:03;;;;;;;372.50;115.57;;;;;;;5.62;76.72;99140.38;344534;28;1168;-71
2022/01/05 00:48:13;;;;;;;374.55;116.32;;;;;;;5.62;76.89;99144.72;343177;28;929;-71
2022/01/05 00:48:24;;;;;;;375.37;115.47;;;;;;;5.61;76.60;99138.66;339300;29;1094;-71
2022/01/05 00:48:35;;;;;;;371.60;114.85;;;;;;;5.60;76.91;99147.34;341502;28;1066;-71
2022/01/05 00:48:45;;;;;;;367.17;114.10;;;;;;;5.59;76.82;99143.06;343328;28;873;-71
2022/01/05 00:48:55;;;;;;;368.10;117.87;;;;;;;5.58;77.03;99143.09;343577;28;889;-71
2022/01/05 00:49:06;;;;;;;370.42;118.15;;;;;;;5.58;76.87;99143.94;343962;28;1322;-71
2022/01/05 00:49:16;;;;;;;371.57;118.33;;;;;;;5.57;77.07;99137.06;345813;28;1334;-70